sensor_id;sensor_type;location;lat;lon;timestamp;temperature;humidity
37882;DHT22;23724;45.572;12.064;2023-01-10T00:01:13;7.90;83.90
37882;DHT22;23724;45.572;12.064;2023-01-10T00:06:17;7.90;83.90
37882;DHT22;23724;45.572;12.064;2023-01-10T00:11:22;7.80;83.80
37882;DHT22;23724;45.572;12.064;2023-01-10T00:16:45;7.70;83.90
37882;DHT22;23724;45.572;12.064;2023-01-10T00:21:49;7.70;84.10
37882;DHT22;23724;45.572;12.064;2023-01-10T00:26:53;7.60;84.20
37882;DHT22;23724;45.572;12.064;2023-01-10T00:31:58;7.60;84.10
37882;DHT22;23724;45.572;12.064;2023-01-10T00:37:01;7.60;84.40
37882;DHT22;23724;45.572;12.064;2023-01-10T00:42:06;7.40;84.00
37882;DHT22;23724;45.572;12.064;2023-01-10T00:47:28;7.30;84.20
37882;DHT22;23724;45.572;12.064;2023-01-10T00:52:32;7.10;84.40
37882;DHT22;23724;45.572;12.064;2023-01-10T00:57:37;6.90;84.60
37882;DHT22;23724;45.572;12.064;2023-01-10T01:02:42;6.80;84.70
37882;DHT22;23724;45.572;12.064;2023-01-10T01:07:48;6.70;84.80
37882;DHT22;23724;45.572;12.064;2023-01-10T01:12:58;6.60;85.20
37882;DHT22;23724;45.572;12.064;2023-01-10T01:18:04;6.40;85.20
37882;DHT22;23724;45.572;12.064;2023-01-10T01:23:09;6.30;85.70
37882;DHT22;23724;45.572;12.064;2023-01-10T01:28:13;6.30;85.50
37882;DHT22;23724;45.572;12.064;2023-01-10T01:33:18;6.30;85.60
37882;DHT22;23724;45.572;12.064;2023-01-10T01:38:22;6.10;85.60
37882;DHT22;23724;45.572;12.064;2023-01-10T01:43:28;6.00;85.60
37882;DHT22;23724;45.572;12.064;2023-01-10T01:48:38;5.90;85.70
37882;DHT22;23724;45.572;12.064;2023-01-10T01:53:53;5.80;85.90
37882;DHT22;23724;45.572;12.064;2023-01-10T02:04:20;5.80;86.30
37882;DHT22;23724;45.572;12.064;2023-01-10T02:14:39;5.80;86.20
37882;DHT22;23724;45.572;12.064;2023-01-10T02:47:07;5.30;86.40
37882;DHT22;23724;45.572;12.064;2023-01-10T02:52:17;5.30;86.60
37882;DHT22;23724;45.572;12.064;2023-01-10T03:03:24;5.10;86.20
37882;DHT22;23724;45.572;12.064;2023-01-10T03:08:42;4.90;86.40
37882;DHT22;23724;45.572;12.064;2023-01-10T03:14:00;5.00;87.00
37882;DHT22;23724;45.572;12.064;2023-01-10T03:19:14;5.30;87.60
37882;DHT22;23724;45.572;12.064;2023-01-10T03:24:26;5.40;87.40
37882;DHT22;23724;45.572;12.064;2023-01-10T03:29:42;5.50;86.90
37882;DHT22;23724;45.572;12.064;2023-01-10T03:34:49;5.50;86.90
37882;DHT22;23724;45.572;12.064;2023-01-10T03:39:59;5.50;86.70
37882;DHT22;23724;45.572;12.064;2023-01-10T03:45:11;5.40;86.70
37882;DHT22;23724;45.572;12.064;2023-01-10T03:50:22;5.50;87.20
37882;DHT22;23724;45.572;12.064;2023-01-10T03:55:28;5.60;87.40
37882;DHT22;23724;45.572;12.064;2023-01-10T04:00:32;5.60;87.00
37882;DHT22;23724;45.572;12.064;2023-01-10T04:05:37;5.40;86.50
37882;DHT22;23724;45.572;12.064;2023-01-10T04:10:41;5.30;86.60
37882;DHT22;23724;45.572;12.064;2023-01-10T04:15:46;5.30;86.70
37882;DHT22;23724;45.572;12.064;2023-01-10T04:20:50;5.10;86.40
37882;DHT22;23724;45.572;12.064;2023-01-10T04:25:56;5.00;86.50
37882;DHT22;23724;45.572;12.064;2023-01-10T04:31:01;5.00;86.60
37882;DHT22;23724;45.572;12.064;2023-01-10T04:36:05;5.00;87.40
37882;DHT22;23724;45.572;12.064;2023-01-10T04:41:09;5.10;87.10
37882;DHT22;23724;45.572;12.064;2023-01-10T04:46:15;5.20;87.10
37882;DHT22;23724;45.572;12.064;2023-01-10T04:51:20;5.10;86.70
37882;DHT22;23724;45.572;12.064;2023-01-10T04:56:24;4.90;86.50
37882;DHT22;23724;45.572;12.064;2023-01-10T05:01:28;4.70;86.20
37882;DHT22;23724;45.572;12.064;2023-01-10T05:06:32;4.60;86.70
37882;DHT22;23724;45.572;12.064;2023-01-10T05:11:36;4.50;86.90
37882;DHT22;23724;45.572;12.064;2023-01-10T05:16:40;4.40;87.00
37882;DHT22;23724;45.572;12.064;2023-01-10T05:21:45;4.50;87.50
37882;DHT22;23724;45.572;12.064;2023-01-10T05:26:49;4.40;86.90
37882;DHT22;23724;45.572;12.064;2023-01-10T05:31:53;4.30;86.80
37882;DHT22;23724;45.572;12.064;2023-01-10T05:36:58;4.40;88.00
37882;DHT22;23724;45.572;12.064;2023-01-10T05:42:02;4.60;87.90
37882;DHT22;23724;45.572;12.064;2023-01-10T05:47:11;4.60;87.20
37882;DHT22;23724;45.572;12.064;2023-01-10T05:52:15;4.40;86.70
37882;DHT22;23724;45.572;12.064;2023-01-10T05:57:19;4.30;87.00
37882;DHT22;23724;45.572;12.064;2023-01-10T06:02:24;4.30;87.60
37882;DHT22;23724;45.572;12.064;2023-01-10T06:07:29;4.40;87.40
37882;DHT22;23724;45.572;12.064;2023-01-10T06:12:35;4.30;86.70
37882;DHT22;23724;45.572;12.064;2023-01-10T06:17:42;3.90;86.40
37882;DHT22;23724;45.572;12.064;2023-01-10T06:22:46;4.00;87.20
37882;DHT22;23724;45.572;12.064;2023-01-10T06:27:51;3.80;86.50
37882;DHT22;23724;45.572;12.064;2023-01-10T06:33:04;3.60;86.60
37882;DHT22;23724;45.572;12.064;2023-01-10T06:38:08;3.70;87.40
37882;DHT22;23724;45.572;12.064;2023-01-10T06:43:13;3.80;87.30
37882;DHT22;23724;45.572;12.064;2023-01-10T06:48:20;3.40;86.70
37882;DHT22;23724;45.572;12.064;2023-01-10T06:53:25;3.30;86.80
37882;DHT22;23724;45.572;12.064;2023-01-10T06:58:31;3.00;86.90
37882;DHT22;23724;45.572;12.064;2023-01-10T07:03:35;2.90;87.10
37882;DHT22;23724;45.572;12.064;2023-01-10T07:08:42;2.90;87.30
37882;DHT22;23724;45.572;12.064;2023-01-10T07:13:47;2.90;87.50
37882;DHT22;23724;45.572;12.064;2023-01-10T07:18:51;2.90;87.40
37882;DHT22;23724;45.572;12.064;2023-01-10T07:23:56;2.70;87.30
37882;DHT22;23724;45.572;12.064;2023-01-10T07:29:02;2.80;88.00
37882;DHT22;23724;45.572;12.064;2023-01-10T07:34:06;3.00;87.80
37882;DHT22;23724;45.572;12.064;2023-01-10T07:39:10;2.90;87.50
37882;DHT22;23724;45.572;12.064;2023-01-10T07:44:15;3.00;87.90
37882;DHT22;23724;45.572;12.064;2023-01-10T07:49:19;3.30;88.10
37882;DHT22;23724;45.572;12.064;2023-01-10T07:54:24;3.60;88.30
37882;DHT22;23724;45.572;12.064;2023-01-10T07:59:28;3.80;88.00
37882;DHT22;23724;45.572;12.064;2023-01-10T08:04:33;3.80;87.90
37882;DHT22;23724;45.572;12.064;2023-01-10T08:09:38;4.10;88.60
37882;DHT22;23724;45.572;12.064;2023-01-10T08:14:43;4.30;88.40
37882;DHT22;23724;45.572;12.064;2023-01-10T08:19:48;4.50;88.30
37882;DHT22;23724;45.572;12.064;2023-01-10T08:24:52;4.60;88.10
37882;DHT22;23724;45.572;12.064;2023-01-10T08:29:57;4.90;88.20
37882;DHT22;23724;45.572;12.064;2023-01-10T08:35:01;5.10;88.30
37882;DHT22;23724;45.572;12.064;2023-01-10T08:40:08;5.30;88.50
37882;DHT22;23724;45.572;12.064;2023-01-10T08:45:14;5.50;88.20
37882;DHT22;23724;45.572;12.064;2023-01-10T08:50:19;5.80;87.70
37882;DHT22;23724;45.572;12.064;2023-01-10T08:55:24;5.90;87.60
37882;DHT22;23724;45.572;12.064;2023-01-10T09:00:29;6.10;87.30
37882;DHT22;23724;45.572;12.064;2023-01-10T09:05:34;6.20;87.30
37882;DHT22;23724;45.572;12.064;2023-01-10T09:10:38;6.30;87.20
37882;DHT22;23724;45.572;12.064;2023-01-10T09:15:42;6.60;86.90
37882;DHT22;23724;45.572;12.064;2023-01-10T09:20:48;6.80;86.90
37882;DHT22;23724;45.572;12.064;2023-01-10T09:25:53;6.90;86.60
37882;DHT22;23724;45.572;12.064;2023-01-10T09:30:59;7.00;86.50
37882;DHT22;23724;45.572;12.064;2023-01-10T09:36:04;7.20;86.40
37882;DHT22;23724;45.572;12.064;2023-01-10T09:52:38;7.70;86.30
37882;DHT22;23724;45.572;12.064;2023-01-10T09:57:44;7.80;86.30
37882;DHT22;23724;45.572;12.064;2023-01-10T10:02:52;7.90;86.30
37882;DHT22;23724;45.572;12.064;2023-01-10T10:08:16;8.10;86.20
37882;DHT22;23724;45.572;12.064;2023-01-10T10:34:44;8.90;85.70
37882;DHT22;23724;45.572;12.064;2023-01-10T10:40:20;9.20;85.50
37882;DHT22;23724;45.572;12.064;2023-01-10T10:45:36;9.40;85.40
37882;DHT22;23724;45.572;12.064;2023-01-10T10:56:37;9.90;84.60
37882;DHT22;23724;45.572;12.064;2023-01-10T11:01:41;10.30;84.50
37882;DHT22;23724;45.572;12.064;2023-01-10T11:06:50;10.70;84.50
37882;DHT22;23724;45.572;12.064;2023-01-10T11:11:55;12.50;84.70
37882;DHT22;23724;45.572;12.064;2023-01-10T11:17:21;14.80;78.00
37882;DHT22;23724;45.572;12.064;2023-01-10T11:22:28;16.30;72.40
37882;DHT22;23724;45.572;12.064;2023-01-10T11:27:43;17.40;71.90
37882;DHT22;23724;45.572;12.064;2023-01-10T11:32:52;18.40;69.40
37882;DHT22;23724;45.572;12.064;2023-01-10T11:38:17;18.90;66.30
37882;DHT22;23724;45.572;12.064;2023-01-10T11:43:38;18.90;65.70
37882;DHT22;23724;45.572;12.064;2023-01-10T11:54:18;20.40;61.10
37882;DHT22;23724;45.572;12.064;2023-01-10T11:59:23;20.80;58.70
37882;DHT22;23724;45.572;12.064;2023-01-10T12:04:39;21.50;58.00
37882;DHT22;23724;45.572;12.064;2023-01-10T12:14:59;22.50;46.80
